Flight Track Log - Related Links

Times and Time Zones

All times are in EDT time to prevent confusion due to time zone crossing. See the JBU917 flight status page for this flight to view local times or setup timezone preferences in your user account.

Time Position Orientation Groundspeed Altitude Reporting Facility
EDT Latitude Longitude Course Direction KTS MPH feet Rate Location/Type
Sat 10:27:35 PM 40.6167 -73.6833 294° West 199 229 3,700  Level New TRACON
Sat 10:28:30 PM 40.6500 -73.6333 49° Northeast 235 270 5,800 2,765 Climbing New TRACON
Sat 10:29:00 PM 40.8738 -74.2297 306° West  Level FlightAware
Sat 10:29:30 PM 40.7000 -73.5667 45° Northeast 258 297 9,000  Level New TRACON
Sat 10:30:00 PM 40.9377 -74.3467 306° West  Level FlightAware
Sat 10:30:29 PM 40.7667 -73.5000 37° Northeast 284 327 11,100  Level New TRACON
Sat 10:31:00 PM 41.0046 -74.4593 304° West  Level FlightAware
Sat 10:31:36 PM 40.8667 -73.5000 360° North 332 382 11,100  Level New TRACON
Sat 10:32:00 PM 41.0647 -74.5773 294° West  Level FlightAware
Sat 10:32:30 PM 40.9333 -73.5833 317° Northwest 344 396 13,800  Level New TRACON
Sat 10:33:36 PM 40.9833 -73.7000 300° West 359 413 16,400 1,172 Climbing New TRACON
Sat 10:35:19 PM 41.0706 -73.8839 302° West 416 479 17,100 1,067 Climbing New Center
Sat 10:36:19 PM 41.1125 -74.0292 291° West 386 444 19,300 2,033 Climbing New Center
Sat 10:37:20 PM 41.1481 -74.1686 289° West 391 450 21,200 1,780 Climbing New Center
Sat 10:38:17 PM 41.1797 -74.2969 288° West 396 456 22,800 1,627 Climbing New Center
Sat 10:39:18 PM 41.2169 -74.4422 289° West 411 473 24,400 1,415 Climbing New Center
Sat 10:40:20 PM 41.2561 -74.5906 289° West 416 479 25,700 1,400 Climbing New Center
Sat 10:41:18 PM 41.2947 -74.7419 289° West 428 493 27,200 1,412 Climbing New Center
Sat 10:42:19 PM 41.3347 -74.9156 287° West 443 510 28,500 1,550 Climbing New Center
Sat 10:43:18 PM 41.3731 -75.0672 289° West 443 510 30,300 1,513 Climbing New Center
Sat 10:44:18 PM 41.4111 -75.2189 289° West 438 504 31,500 1,240 Climbing New Center
Sat 10:45:19 PM 41.4469 -75.3708 288° West 432 497 32,800 1,000 Climbing New Center
Sat 10:46:18 PM 41.4869 -75.5175 290° West 432 497 33,500 1,160 Climbing New Center
Sat 10:47:18 PM 41.5289 -75.6672 291° West 432 497 35,100 1,091 Climbing New Center
Sat 10:48:19 PM 41.5653 -75.7919 291° West 425 489 35,700 450 Climbing New Center
Sat 10:49:18 PM 41.6069 -75.9339 291° West 417 480 36,000 150 Climbing New Center
Sat 10:50:19 PM 41.6483 -76.0842 290° West 417 480 36,000  Level New Center
Sat 10:51:17 PM 41.6933 -76.2406 291° West 430 495 36,000  Level New Center
Sat 10:52:17 PM 41.7358 -76.3997 290° West 448 516 36,000  Level New Center
Sat 10:54:00 PM 41.8100 -76.6686 290° West 458 527 36,000  Level Cleveland Center
Sat 10:55:00 PM 41.8550 -76.8306 291° West 458 527 36,000  Level Cleveland Center
Sat 10:56:00 PM 41.8994 -76.9869 291° West 463 533 36,000  Level Cleveland Center
Sat 10:57:00 PM 41.9400 -77.1494 289° West 463 533 36,000  Level Cleveland Center
Sat 10:58:00 PM 41.9842 -77.3092 290° West 463 533 36,000  Level Cleveland Center
Sat 10:59:00 PM 42.0283 -77.4689 290° West 463 533 36,000  Level Cleveland Center
Sat 11:00:00 PM 42.0700 -77.6319 289° West 463 533 36,000  Level Cleveland Center
Sat 11:01:00 PM 42.1119 -77.7981 289° West 463 533 36,000  Level Cleveland Center
Sat 11:02:00 PM 42.1572 -77.9586 291° West 457 526 36,000  Level Cleveland Center
Sat 11:03:00 PM 42.1983 -78.1194 289° West 462 532 36,000  Level Cleveland Center
Sat 11:04:00 PM 42.2411 -78.2778 290° West 456 525 36,000  Level Cleveland Center
Sat 11:05:00 PM 42.2842 -78.4444 289° West 456 525 36,000  Level Cleveland Center
Sat 11:06:00 PM 42.3244 -78.6089 288° West 462 532 36,000  Level Cleveland Center
Sat 11:07:00 PM 42.3647 -78.7706 289° West 462 532 36,000  Level Cleveland Center
Sat 11:08:00 PM 42.4111 -78.9464 290° West 462 532 36,000  Level Cleveland Center
Sat 11:09:00 PM 42.4489 -79.1114 287° West 462 532 36,000  Level Cleveland Center
Sat 11:10:00 PM 42.4861 -79.2628 288° West 462 532 36,000  Level Cleveland Center
Sat 11:11:00 PM 42.5003 -79.4342 276° West 462 532 36,000  Level Cleveland Center
Sat 11:12:00 PM 42.5083 -79.6058 274° West 462 532 36,000  Level Cleveland Center
Sat 11:13:00 PM 42.5158 -79.7775 273° West 462 532 36,000  Level Cleveland Center
Sat 11:14:00 PM 42.5253 -79.9522 274° West 462 532 36,000  Level Cleveland Center
Sat 11:15:00 PM 42.5281 -80.1267 271° West 462 532 36,000  Level Cleveland Center
Sat 11:16:00 PM 42.5369 -80.3014 274° West 462 532 36,000  Level Cleveland Center
Sat 11:17:00 PM 42.5456 -80.4733 274° West 462 532 36,000  Level Cleveland Center
Sat 11:18:00 PM 42.5539 -80.6650 273° West 462 532 36,000  Level Cleveland Center
Sat 11:19:00 PM 42.5703 -80.8342 278° West 462 532 36,000  Level Cleveland Center
Sat 11:20:00 PM 42.5867 -81.0089 277° West 462 532 36,000  Level Cleveland Center
Sat 11:21:00 PM 42.6044 -81.1811 278° West 467 537 36,000  Level Cleveland Center
Sat 11:22:00 PM 42.6222 -81.3592 278° West 467 537 36,000  Level Cleveland Center
Sat 11:23:00 PM 42.6375 -81.5286 277° West 460 529 36,000  Level Cleveland Center
Sat 11:24:00 PM 42.6528 -81.7039 277° West 467 537 36,000  Level Cleveland Center
Sat 11:25:00 PM 42.6697 -81.8764 278° West 467 537 36,000  Level Cleveland Center
Sat 11:26:00 PM 42.6864 -82.0519 277° West 467 537 36,000  Level Cleveland Center
Sat 11:27:00 PM 42.7006 -82.2275 276° West 467 537 36,000  Level Cleveland Center
Sat 11:28:00 PM 42.7167 -82.4031 277° West 467 537 36,000  Level Cleveland Center
Sat 11:29:00 PM 42.7306 -82.5786 276° West 467 537 36,000  Level Cleveland Center
Sat 11:30:00 PM 42.7461 -82.7544 277° West 467 537 36,000  Level Cleveland Center
Sat 11:31:00 PM 42.7592 -82.9331 276° West 467 537 36,000  Level Cleveland Center
Sat 11:32:00 PM 42.7744 -83.1061 277° West 473 544 36,000  Level Cleveland Center
Sat 11:33:00 PM 42.7892 -83.2822 277° West 473 544 36,000  Level Cleveland Center
Sat 11:34:00 PM 42.8036 -83.4614 276° West 473 544 36,000  Level Cleveland Center
Sat 11:35:00 PM 42.8158 -83.6372 275° West 473 544 36,000  Level Cleveland Center
Sat 11:36:00 PM 42.8297 -83.8136 276° West 473 544 36,000  Level Cleveland Center
Sat 11:37:00 PM 42.8411 -83.9956 275° West 478 550 36,000  Level Cleveland Center
Sat 11:38:00 PM 42.8525 -84.1717 275° West 478 550 36,000  Level Cleveland Center
Sat 11:39:00 PM 42.8697 -84.3483 278° West 483 556 36,000 -400 Level Cleveland Center
Sat 11:40:00 PM 42.8783 -84.5275 274° West 483 556 35,200 -1,536 Descending Cleveland Center
Sat 11:41:00 PM 42.8677 -84.6767 259° West  Level FlightAware
Sat 11:48:00 PM 42.7329 -85.7194 259° West  Level FlightAware
Sat 11:49:00 PM 42.7118 -85.8681 259° West  Level FlightAware
Sat 11:50:00 PM 42.6889 -86.0163 257° West  Level FlightAware
Sat 11:51:00 PM 42.6585 -86.1619 253° West  Level FlightAware
Sat 11:52:00 PM 42.6236 -86.3056 251° West  Level FlightAware
Sat 11:53:00 PM 42.5962 -86.4520 257° West  Level FlightAware
Sat 11:54:00 PM 42.5706 -86.5992 257° West  Level FlightAware
Sat 11:55:00 PM 42.5423 -86.7451 250° West  Level FlightAware
Sat 11:55:01 PM 42.4833 -86.9833 236° Southwest 376 433 11,400  Level Chicago TRACON
Sat 11:56:00 PM 42.5036 -86.8868 250° West  Level FlightAware
Sat 11:56:07 PM 42.4500 -87.1333 253° West 373 429 10,000  Level Chicago TRACON
Sat 11:57:00 PM 42.4677 -87.0296 251° West  Level FlightAware
Sat 11:57:07 PM 42.4167 -87.2667 251° West 372 428 10,000  Level Chicago TRACON
Sat 11:58:00 PM 42.4319 -87.1712 246° West  Level FlightAware
Sat 11:58:07 PM 42.3833 -87.4000 251° West 373 429 10,000  Level Chicago TRACON
Sat 11:59:00 PM 42.3860 -87.3086 246° West  Level FlightAware
Sat 11:59:07 PM 42.3333 -87.5167 240° Southwest 372 428 10,000  Level Chicago TRACON
Sun 12:00:00 AM 42.3504 -87.4492 236° Southwest  Level FlightAware
Sun 12:00:01 AM 42.2833 -87.6000 231° Southwest 366 421 10,000  Level Chicago TRACON
Sun 12:01:07 AM 42.1833 -87.7000 217° Southwest 363 418 10,000  Level Chicago TRACON
Sun 12:02:07 AM 42.1000 -87.7833 217° Southwest 342 394 10,000 -368 Level Chicago TRACON
Sun 12:03:01 AM 42.0500 -87.8333 217° Southwest 288 331 9,300 -1,316 Descending Chicago TRACON
Sun 12:04:01 AM 42.0333 -87.9500 259° West 328 377 7,500 -1,350 Descending Chicago TRACON
Sun 12:05:01 AM 42.0333 -88.0500 270° West 276 318 6,600 -942 Descending Chicago TRACON
Sun 12:06:02 AM 42.0500 -88.1500 283° West 232 267 5,600 -1,289 Descending Chicago TRACON
Sun 12:07:02 AM 42.0333 -88.2333 255° West 232 267 4,000 -800 Descending Chicago TRACON
Sun 12:08:02 AM 41.9667 -88.2333 180° South 210 242 4,000  Level Chicago TRACON
Sun 12:09:08 AM 41.9500 -88.1667 109° East 209 241 4,000 -381 Level Chicago TRACON
Sun 12:10:08 AM 41.9667 -88.1000 71° East 184 212 3,200 -900 Descending Chicago TRACON
Sun 12:11:08 AM 41.9667 -88.0333 90° East 175 201 2,200 -895 Descending Chicago TRACON
Sun 12:12:02 AM 41.9667 -87.9833 90° East 141 162 1,500 -737 Descending Chicago TRACON
Sun 12:13:02 AM 41.9667 -87.9333 90° East 144 166 800 -700 Descending Chicago TRACON
Sun 12:15:00 AM 41.9667 -87.9000 114° Southeast  Level FlightAware
Sun 12:22:00 AM 41.9817 -87.9067 114° Southeast  Level Estimated
Sun 12:23:00 AM 41.9817 -87.9067 114° Southeast  Level Estimated
Sun 12:24:00 AM 41.9817 -87.9067 114° Southeast  Level Estimated

Login

Don't have an account? Register now (free) for customized features, flight alerts, and more!